Yuma, AZ

11:32 AM MST on Νοέμβριος 23, 2014 (GMT -0700)
Yuma Marine Corps Air Station | Change Station
CLOSE
Current Station
Airport
Location: Yuma MCAS,
Elevation: 213 ft
Nearby Weather Stations

Elev 213 ft 32.66 °N, 114.61 °W | Updated 35 minutes ago

Νεφελώδης
Νεφελώδης
74 ° F
Feels Like 74 ° F
N
20
Ανεμος Μεταβλητός Ανεμος from Βόρειος
Gusts 29 mph

Σήμερα
High -- | Low -- ° F
--% Chance of Precip.
Yesterday
High -- | Low -- ° F
Precip. -- in
7:15 AM 5:33 PM
Νέα Σελήνη, 2% visible
Ατμοσφαιρική Πίεση 30.12 in
Ορατότητα 10.0 Μίλια
Σύννεφα Few 18000 ft
Διάσπαρτα Νέφη 30000 ft
Σημείο Δρόσου 25 ° F
Υγρασία 16%
Rainfall 0.00 in
Snow Depth Not available.
Υπεριώδης ακτινοβολία (UV) 3 out of 12
Pollen 4.50 out of 12
Air Quality Not available.
Flu Activity Not available.
METAR KNYL 231757Z 01017G25KT 10SM FEW180 SCT300 23/M04 A3013 RMK AO2 PK WND 01027/1734 SLP200 T02331039 10233 20122 51026 $

More Conditions Fewer Conditions

Ατμοσφαιρική Πίεση 30.12 in
Ορατότητα 10.0 Μίλια
Σύννεφα Few 18000 ft
Διάσπαρτα Νέφη 30000 ft
Σημείο Δρόσου 25 ° F
Υγρασία 16%
Rainfall 0.00 in
Snow Depth Not available.
Υπεριώδης ακτινοβολία (UV) 3 out of 12
Pollen 4.50 out of 12
Air Quality Not available.
Flu Activity Not available.
METAR KNYL 231757Z 01017G25KT 10SM FEW180 SCT300 23/M04 A3013 RMK AO2 PK WND 01027/1734 SLP200 T02331039 10233 20122 51026 $

More Conditions Fewer Conditions

10-Day Weather Forecast

Almanac

Αστρονομία

Nov. 23, 2014 Rise Set
Actual Time
Civil Twilight
Nautical Twilight
Astronomical Twilight
Moon
Length Of Visible Light
Διάρκεια ημέρας
Tomorrow will be .
, % of the Moon is Illuminated

Today's Extremes

State Highs State Lows

Community

WunderPhotos

Upload Photos

1,773,126 photos uploaded!

WunderBlogs® & News

Nearby

Air Quality

  Air Quality AQ Index Pollutant
Not available.

Snow Depth

Station Depth Elevation

Earthquake Activity

City Distance Mag. Time & Date
Minimum magnitude displayed is 2.5.

Coastal Water Temperatures

Τοποθεσία Θερμοκρασία

Nearby Weather Stations